createdAt,value
2017-12-19T00:01:49.358Z,84.40
2017-12-19T00:04:17.901Z,84.30
2017-12-19T00:06:45.488Z,84.10
2017-12-19T00:09:13.099Z,83.80
2017-12-19T00:11:40.649Z,84.10
2017-12-19T00:14:08.417Z,84.90
2017-12-19T00:16:35.979Z,84.40
2017-12-19T00:19:03.665Z,83.70
2017-12-19T00:21:31.978Z,83.90
2017-12-19T00:23:59.598Z,83.30
2017-12-19T00:26:28.225Z,83.80
2017-12-19T00:28:55.805Z,83.60
2017-12-19T00:31:23.409Z,83.20
2017-12-19T00:33:51.100Z,83.90
2017-12-19T00:36:18.680Z,83.90
2017-12-19T00:38:46.275Z,83.70
2017-12-19T00:41:13.858Z,83.80
2017-12-19T00:43:42.415Z,83.70
2017-12-19T00:46:10.076Z,83.30
2017-12-19T00:48:39.355Z,83.90
2017-12-19T00:51:06.915Z,83.80
2017-12-19T00:53:34.484Z,83.60
2017-12-19T00:56:02.078Z,83.80
2017-12-19T00:58:29.676Z,84.00
2017-12-19T01:00:57.258Z,85.10
2017-12-19T01:03:24.797Z,84.20
2017-12-19T01:05:54.310Z,84.30
2017-12-19T01:08:21.839Z,83.80
2017-12-19T01:10:50.382Z,83.70
2017-12-19T01:13:18.689Z,83.40
2017-12-19T01:15:46.457Z,83.40
2017-12-19T01:18:14.002Z,83.90
2017-12-19T01:20:43.024Z,84.10
2017-12-19T01:23:11.366Z,84.10
2017-12-19T01:25:39.934Z,83.40
2017-12-19T01:28:07.505Z,83.00
2017-12-19T01:30:35.826Z,84.00
2017-12-19T01:33:03.388Z,84.00
2017-12-19T01:35:31.057Z,83.20
2017-12-19T01:37:58.602Z,83.30
2017-12-19T01:40:26.778Z,84.60
2017-12-19T01:42:55.157Z,84.10
2017-12-19T01:45:24.386Z,83.30
2017-12-19T01:47:53.245Z,83.50
2017-12-19T01:50:22.137Z,83.50
2017-12-19T01:52:51.505Z,84.30
2017-12-19T01:55:19.092Z,84.10
2017-12-19T01:57:46.691Z,83.80
2017-12-19T02:00:14.243Z,83.70
2017-12-19T02:02:41.773Z,85.40
2017-12-19T02:05:09.363Z,86.20
2017-12-19T02:07:38.118Z,85.90
2017-12-19T02:10:07.366Z,86.50
2017-12-19T02:12:34.946Z,86.50
2017-12-19T02:15:03.247Z,87.10
2017-12-19T02:17:30.809Z,87.00
2017-12-19T02:19:58.358Z,86.70
2017-12-19T02:22:25.947Z,86.00
2017-12-19T02:24:54.414Z,85.30
2017-12-19T02:27:21.930Z,84.70
2017-12-19T02:29:50.303Z,84.50
2017-12-19T02:32:17.867Z,84.50
2017-12-19T02:34:45.404Z,84.30
2017-12-19T02:37:13.023Z,84.60
2017-12-19T02:39:40.973Z,84.20
2017-12-19T02:42:08.534Z,84.80
2017-12-19T02:44:36.087Z,85.00
2017-12-19T02:47:03.618Z,85.10
2017-12-19T02:49:31.192Z,85.80
2017-12-19T02:51:58.769Z,85.70
2017-12-19T02:54:26.323Z,85.20
2017-12-19T02:56:53.887Z,85.20
2017-12-19T02:59:21.425Z,84.70
2017-12-19T03:01:49.000Z,85.80
2017-12-19T03:04:16.568Z,85.90
2017-12-19T03:06:45.078Z,86.20
2017-12-19T03:09:14.572Z,86.60
2017-12-19T03:11:42.124Z,87.00
2017-12-19T03:14:10.656Z,87.20
2017-12-19T03:16:38.222Z,86.40
2017-12-19T03:19:05.752Z,85.60
2017-12-19T03:21:33.318Z,86.70
2017-12-19T03:24:01.057Z,85.90
2017-12-19T03:26:28.619Z,86.00
2017-12-19T03:28:56.161Z,85.50
2017-12-19T03:31:23.822Z,85.30
2017-12-19T03:33:53.319Z,85.10
2017-12-19T03:36:20.848Z,85.40
2017-12-19T03:38:49.179Z,85.00
2017-12-19T03:41:16.740Z,85.00
2017-12-19T03:43:44.261Z,85.00
2017-12-19T03:46:11.791Z,84.60
2017-12-19T03:48:40.666Z,85.00
2017-12-19T03:51:09.398Z,85.70
2017-12-19T03:53:38.946Z,84.80
2017-12-19T03:56:06.500Z,84.10
2017-12-19T03:58:34.043Z,84.20
2017-12-19T04:01:01.580Z,84.70
2017-12-19T04:03:29.150Z,84.50
2017-12-19T04:05:56.701Z,84.60
2017-12-19T04:08:24.273Z,84.60
2017-12-19T04:10:51.803Z,84.00
2017-12-19T04:13:21.080Z,84.50
2017-12-19T04:15:48.638Z,84.50
2017-12-19T04:18:16.171Z,84.10
2017-12-19T04:20:43.730Z,85.10
2017-12-19T04:23:11.298Z,85.70
2017-12-19T04:25:38.883Z,86.80
2017-12-19T04:28:07.171Z,86.70
2017-12-19T04:30:36.482Z,86.00
2017-12-19T04:33:04.080Z,85.80
2017-12-19T04:35:31.678Z,85.40
2017-12-19T04:37:59.979Z,84.90
2017-12-19T04:40:28.285Z,85.70
2017-12-19T04:42:55.859Z,85.70
2017-12-19T04:45:23.809Z,85.20
2017-12-19T04:47:51.578Z,85.80
2017-12-19T04:50:19.135Z,86.60
2017-12-19T04:52:46.694Z,86.30
2017-12-19T04:55:14.260Z,87.20
2017-12-19T04:57:41.834Z,86.20
2017-12-19T05:00:09.374Z,86.20
2017-12-19T05:02:37.892Z,85.60
2017-12-19T05:05:05.890Z,85.40
2017-12-19T05:07:34.196Z,85.00
2017-12-19T05:10:01.763Z,85.00
2017-12-19T05:12:29.304Z,84.80
2017-12-19T05:14:56.876Z,84.80
2017-12-19T05:17:24.532Z,84.80
2017-12-19T05:19:52.151Z,84.40
2017-12-19T05:22:19.686Z,84.80
2017-12-19T05:24:47.302Z,85.40
2017-12-19T05:27:15.825Z,85.40
2017-12-19T05:29:43.379Z,84.90
2017-12-19T05:32:12.020Z,84.40
2017-12-19T05:34:39.558Z,84.60
2017-12-19T05:37:07.891Z,84.10
2017-12-19T05:39:35.437Z,84.00
2017-12-19T05:42:02.989Z,84.20
2017-12-19T05:44:30.528Z,84.20
2017-12-19T05:46:58.311Z,83.90
2017-12-19T05:49:25.844Z,84.10
2017-12-19T05:51:56.076Z,83.90
2017-12-19T05:54:23.605Z,83.90
2017-12-19T05:56:51.150Z,83.70
2017-12-19T05:59:18.708Z,83.70
2017-12-19T06:01:47.288Z,83.60
2017-12-19T06:04:15.821Z,84.20
2017-12-19T06:06:43.380Z,83.30
2017-12-19T06:09:10.944Z,83.60
2017-12-19T06:11:38.509Z,84.70
2017-12-19T06:14:06.142Z,84.50
2017-12-19T06:16:34.435Z,85.00
2017-12-19T06:19:03.988Z,84.90
2017-12-19T06:21:31.547Z,86.10
2017-12-19T06:23:59.092Z,86.40
2017-12-19T06:26:26.705Z,87.10
2017-12-19T06:28:54.304Z,87.30
2017-12-19T06:31:22.196Z,88.20
2017-12-19T06:33:49.922Z,87.10
2017-12-19T06:36:19.592Z,87.60
2017-12-19T06:38:47.416Z,86.70
2017-12-19T06:41:14.995Z,85.80
2017-12-19T06:43:42.555Z,85.40
2017-12-19T06:46:15.091Z,85.10
2017-12-19T06:48:42.978Z,84.70
2017-12-19T06:51:10.514Z,84.20
2017-12-19T06:53:38.075Z,84.50
2017-12-19T06:56:05.666Z,84.20
2017-12-19T06:58:33.223Z,84.90
2017-12-19T07:01:01.702Z,85.00
2017-12-19T07:03:29.267Z,84.90
2017-12-19T07:05:56.831Z,84.70
2017-12-19T07:08:24.427Z,84.90
2017-12-19T07:10:52.116Z,84.60
2017-12-19T07:13:19.732Z,84.20
2017-12-19T07:15:48.256Z,84.80
2017-12-19T07:18:16.822Z,85.10
2017-12-19T07:20:44.606Z,84.50
2017-12-19T07:23:12.148Z,84.30
2017-12-19T07:25:39.708Z,84.90
2017-12-19T07:28:07.359Z,84.80
2017-12-19T07:30:34.943Z,84.20
2017-12-19T07:33:02.487Z,83.80
2017-12-19T07:35:30.129Z,84.10
2017-12-19T07:37:59.416Z,84.00
2017-12-19T07:40:27.764Z,84.30
2017-12-19T07:42:55.476Z,84.30
2017-12-19T07:45:23.057Z,84.50
2017-12-19T07:47:52.769Z,84.60
2017-12-19T07:50:21.352Z,85.00
2017-12-19T07:52:49.126Z,84.20
2017-12-19T07:55:17.632Z,84.10
2017-12-19T07:57:45.193Z,84.30
2017-12-19T08:00:12.771Z,84.80
2017-12-19T08:02:40.337Z,85.30
2017-12-19T08:05:08.629Z,85.20
2017-12-19T08:07:38.123Z,85.10
2017-12-19T08:10:06.852Z,83.80
2017-12-19T08:12:34.464Z,83.80
2017-12-19T08:15:02.047Z,83.70
2017-12-19T08:17:32.790Z,83.80
2017-12-19T08:20:02.940Z,84.40
2017-12-19T08:22:32.662Z,83.60
2017-12-19T08:25:03.356Z,83.00
2017-12-19T08:27:30.935Z,83.00
2017-12-19T08:29:58.478Z,82.30
2017-12-19T08:32:26.033Z,83.30
2017-12-19T08:34:53.797Z,82.60
2017-12-19T08:37:21.382Z,82.60
2017-12-19T08:39:49.020Z,82.60
2017-12-19T08:42:16.587Z,82.70
2017-12-19T08:44:44.212Z,82.70
2017-12-19T08:47:12.501Z,82.60
2017-12-19T08:49:40.565Z,82.50
2017-12-19T08:52:08.286Z,83.00
2017-12-19T08:54:35.862Z,81.90
2017-12-19T08:57:03.565Z,82.80
2017-12-19T08:59:31.336Z,82.90
2017-12-19T09:01:58.954Z,82.30
2017-12-19T09:04:27.445Z,82.70
2017-12-19T09:06:55.781Z,82.10
2017-12-19T09:09:23.353Z,82.10
2017-12-19T09:11:50.936Z,81.80
2017-12-19T09:14:18.500Z,81.70
2017-12-19T09:16:48.792Z,82.10
2017-12-19T09:19:17.118Z,81.50
2017-12-19T09:21:44.691Z,81.50
2017-12-19T09:24:12.284Z,82.10
2017-12-19T09:26:39.845Z,82.30
2017-12-19T09:29:07.459Z,82.60
2017-12-19T09:31:35.015Z,83.30
2017-12-19T09:34:02.737Z,83.80
2017-12-19T09:36:30.227Z,84.90
2017-12-19T09:38:57.888Z,84.90
2017-12-19T09:41:25.495Z,84.80
2017-12-19T09:43:53.120Z,84.70
2017-12-19T09:46:20.679Z,85.00
2017-12-19T09:48:48.280Z,84.70
2017-12-19T09:51:15.828Z,85.40
2017-12-19T09:53:44.354Z,86.10
2017-12-19T09:56:12.989Z,87.00
2017-12-19T09:58:40.582Z,85.60
2017-12-19T10:01:08.911Z,84.60
2017-12-19T10:03:36.455Z,84.60
2017-12-19T10:06:04.013Z,83.40
2017-12-19T10:08:31.565Z,82.70
2017-12-19T10:10:59.168Z,83.30
2017-12-19T10:13:26.707Z,82.10
2017-12-19T10:15:54.284Z,82.10
2017-12-19T10:18:21.816Z,83.10
2017-12-19T10:20:49.385Z,82.60
2017-12-19T10:23:16.930Z,81.50
2017-12-19T10:25:44.537Z,83.00
2017-12-19T10:28:12.155Z,83.80
2017-12-19T10:30:39.690Z,84.50
2017-12-19T10:33:09.214Z,83.70
2017-12-19T10:35:37.720Z,84.70
2017-12-19T10:38:05.284Z,83.50
2017-12-19T10:40:32.818Z,84.30
2017-12-19T10:43:00.379Z,83.50
2017-12-19T10:45:27.927Z,83.20
2017-12-19T10:47:55.477Z,81.90
2017-12-19T10:50:23.035Z,83.20
2017-12-19T10:52:51.561Z,82.50
2017-12-19T10:55:20.154Z,83.30
2017-12-19T10:57:47.692Z,83.20
2017-12-19T11:00:15.542Z,82.90
2017-12-19T11:02:43.085Z,82.60
2017-12-19T11:05:11.432Z,80.90
2017-12-19T11:07:39.733Z,81.50
2017-12-19T11:10:07.325Z,81.60
2017-12-19T11:12:34.839Z,81.40
2017-12-19T11:15:02.399Z,81.50
2017-12-19T11:17:29.943Z,82.40
2017-12-19T11:19:58.481Z,81.50
2017-12-19T11:22:26.080Z,81.60
2017-12-19T11:24:53.619Z,82.20
2017-12-19T11:27:21.504Z,81.60
2017-12-19T11:29:49.823Z,81.20
2017-12-19T11:32:18.468Z,80.60
2017-12-19T11:34:46.040Z,80.60
2017-12-19T11:37:13.661Z,80.70
2017-12-19T11:39:42.212Z,80.20
2017-12-19T11:42:09.792Z,80.70
2017-12-19T11:44:37.332Z,80.90
2017-12-19T11:47:05.154Z,80.80
2017-12-19T11:49:32.710Z,80.70
2017-12-19T11:52:00.271Z,81.60
2017-12-19T11:54:27.831Z,81.50
2017-12-19T11:56:55.434Z,81.40
2017-12-19T11:59:23.019Z,81.60
2017-12-19T12:01:50.555Z,81.40
2017-12-19T12:04:18.136Z,81.40
2017-12-19T12:06:46.320Z,81.40
2017-12-19T12:09:19.080Z,82.30
2017-12-19T12:11:47.274Z,83.70
2017-12-19T12:14:16.184Z,84.20
2017-12-19T12:16:43.856Z,84.00
2017-12-19T12:19:11.423Z,85.00
2017-12-19T12:21:39.731Z,83.60
2017-12-19T12:24:08.253Z,83.60
2017-12-19T12:26:35.842Z,81.80
2017-12-19T12:29:03.446Z,83.20
2017-12-19T12:31:31.047Z,84.60
2017-12-19T12:33:58.639Z,84.60
2017-12-19T12:36:26.222Z,84.80
2017-12-19T12:38:53.760Z,84.70
2017-12-19T12:41:24.032Z,82.60
2017-12-19T12:43:51.563Z,82.60
2017-12-19T12:46:19.087Z,81.20
2017-12-19T12:48:47.427Z,81.50
2017-12-19T12:51:15.005Z,81.40
2017-12-19T12:53:42.559Z,81.40
2017-12-19T12:56:10.139Z,81.10
2017-12-19T12:58:37.699Z,82.40
2017-12-19T13:01:05.263Z,81.30
2017-12-19T13:03:33.591Z,82.90
2017-12-19T13:06:01.129Z,82.90
2017-12-19T13:08:28.795Z,83.10
2017-12-19T13:10:56.331Z,83.20
2017-12-19T13:13:23.959Z,82.10
2017-12-19T13:15:51.497Z,82.10
2017-12-19T13:18:19.147Z,82.20
2017-12-19T13:20:46.717Z,82.40
2017-12-19T13:23:14.358Z,81.30
2017-12-19T13:25:41.924Z,82.40
2017-12-19T13:28:09.455Z,81.20
2017-12-19T13:30:37.021Z,80.80
2017-12-19T13:33:04.683Z,80.30
2017-12-19T13:35:32.251Z,80.40
2017-12-19T13:37:59.792Z,81.20
2017-12-19T13:40:28.323Z,80.90
2017-12-19T13:42:56.639Z,82.90
2017-12-19T13:45:24.223Z,82.90
2017-12-19T13:47:53.139Z,84.30
2017-12-19T13:50:20.738Z,84.20
2017-12-19T13:52:48.341Z,83.50
2017-12-19T13:55:15.956Z,83.30
2017-12-19T13:57:43.530Z,81.50
2017-12-19T14:00:11.080Z,82.30
2017-12-19T14:02:38.676Z,81.20
2017-12-19T14:05:06.459Z,81.50
2017-12-19T14:07:34.207Z,81.50
2017-12-19T14:10:02.726Z,82.20
2017-12-19T14:12:30.266Z,80.90
2017-12-19T14:14:57.822Z,81.90
2017-12-19T14:17:25.374Z,82.20
2017-12-19T14:19:52.943Z,82.70
2017-12-19T14:22:20.485Z,83.00
2017-12-19T14:24:48.043Z,83.00
2017-12-19T14:27:16.596Z,83.50
2017-12-19T14:29:44.927Z,82.70
2017-12-19T14:32:12.462Z,82.80
2017-12-19T14:34:40.225Z,81.30
2017-12-19T14:37:07.752Z,81.40
2017-12-19T14:39:36.367Z,81.20
2017-12-19T14:42:03.927Z,81.20
2017-12-19T14:44:31.471Z,81.90
2017-12-19T14:46:59.030Z,82.20
2017-12-19T14:49:26.555Z,82.20
2017-12-19T14:51:54.125Z,81.80
2017-12-19T14:54:21.736Z,81.70
2017-12-19T14:56:49.307Z,81.70
2017-12-19T14:59:16.837Z,82.20
2017-12-19T15:01:44.410Z,82.20
2017-12-19T15:04:11.960Z,81.30
2017-12-19T15:06:39.520Z,81.70
2017-12-19T15:09:07.039Z,82.70
2017-12-19T15:11:34.608Z,81.70
2017-12-19T15:14:02.146Z,82.00
2017-12-19T15:16:29.678Z,82.20
2017-12-19T15:18:57.235Z,81.90
2017-12-19T15:21:24.765Z,81.80
2017-12-19T15:23:52.347Z,81.90
2017-12-19T15:26:19.876Z,81.40
2017-12-19T15:28:47.443Z,81.20
2017-12-19T15:31:14.972Z,81.80
2017-12-19T15:33:42.552Z,81.90
2017-12-19T15:36:10.108Z,81.70
2017-12-19T15:38:37.666Z,82.20
2017-12-19T15:41:05.192Z,82.50
2017-12-19T15:43:32.747Z,82.20
2017-12-19T15:46:00.271Z,82.20
2017-12-19T15:48:27.790Z,82.00
2017-12-19T15:50:55.351Z,82.30
2017-12-19T15:53:23.647Z,81.70
2017-12-19T15:55:51.204Z,81.70
2017-12-19T15:58:18.771Z,81.50
2017-12-19T16:00:47.577Z,82.00
2017-12-19T16:03:15.111Z,81.90
2017-12-19T16:05:42.662Z,81.80
2017-12-19T16:08:10.253Z,82.40
2017-12-19T16:10:37.895Z,82.50
2017-12-19T16:13:05.427Z,81.90
2017-12-19T16:15:33.739Z,81.10
2017-12-19T16:18:01.312Z,81.10
2017-12-19T16:20:28.848Z,80.70
2017-12-19T16:22:56.420Z,80.90
2017-12-19T16:25:23.952Z,81.00
2017-12-19T16:27:51.508Z,80.60
2017-12-19T16:30:20.019Z,80.70
2017-12-19T16:32:47.619Z,80.70
2017-12-19T16:35:15.160Z,80.20
2017-12-19T16:37:44.698Z,80.10
2017-12-19T16:40:13.091Z,79.20
2017-12-19T16:42:40.654Z,79.10
2017-12-19T16:45:08.194Z,79.70
2017-12-19T16:47:36.550Z,77.90
2017-12-19T16:50:04.869Z,78.30
2017-12-19T16:52:32.408Z,78.30
2017-12-19T16:55:00.858Z,77.50
2017-12-19T16:57:28.391Z,77.50
2017-12-19T16:59:55.943Z,78.10
2017-12-19T17:02:23.497Z,78.60
2017-12-19T17:04:51.075Z,77.50
2017-12-19T17:07:18.760Z,76.80
2017-12-19T17:09:48.313Z,77.20
2017-12-19T17:12:15.861Z,76.60
2017-12-19T17:14:43.468Z,77.80
2017-12-19T17:17:11.113Z,78.50
2017-12-19T17:19:38.666Z,78.80
2017-12-19T17:22:06.231Z,78.60
2017-12-19T17:24:33.875Z,78.70
2017-12-19T17:27:02.426Z,79.20
2017-12-19T17:29:30.725Z,80.00
2017-12-19T17:31:58.286Z,79.90
2017-12-19T17:34:25.805Z,80.40
2017-12-19T17:36:53.366Z,80.30
2017-12-19T17:39:20.896Z,81.10
2017-12-19T17:41:48.460Z,80.50
2017-12-19T17:44:16.960Z,79.80
2017-12-19T17:46:45.454Z,79.50
2017-12-19T17:49:12.995Z,79.90
2017-12-19T17:51:41.650Z,79.80
2017-12-19T17:54:11.182Z,79.80
2017-12-19T17:56:38.710Z,80.50
2017-12-19T17:59:06.275Z,80.70
2017-12-19T18:01:33.814Z,83.10
2017-12-19T18:04:02.332Z,81.90
2017-12-19T18:06:29.867Z,81.10
2017-12-19T18:08:57.436Z,80.50
2017-12-19T18:11:24.991Z,80.20
2017-12-19T18:13:53.305Z,80.70
2017-12-19T18:16:20.859Z,80.60
2017-12-19T18:18:49.339Z,80.70
2017-12-19T18:21:16.900Z,80.10
2017-12-19T18:23:44.428Z,79.90
2017-12-19T18:26:12.920Z,80.60
2017-12-19T18:28:40.466Z,81.00
2017-12-19T18:31:08.040Z,81.10
2017-12-19T18:33:35.583Z,81.20
2017-12-19T18:36:03.125Z,80.70
2017-12-19T18:38:30.687Z,80.90
2017-12-19T18:40:58.225Z,80.80
2017-12-19T18:43:25.792Z,80.50
2017-12-19T18:45:53.342Z,80.20
2017-12-19T18:48:21.682Z,80.50
2017-12-19T18:50:49.221Z,80.50
2017-12-19T18:53:16.803Z,80.50
2017-12-19T18:55:45.089Z,80.80
2017-12-19T18:58:12.679Z,81.10
2017-12-19T19:00:40.988Z,81.30
2017-12-19T19:03:08.537Z,81.10
2017-12-19T19:05:36.099Z,81.30
2017-12-19T19:08:04.779Z,81.70
2017-12-19T19:10:32.723Z,81.50
2017-12-19T19:13:00.408Z,81.80
2017-12-19T19:15:27.993Z,82.70
2017-12-19T19:17:55.622Z,82.80
2017-12-19T19:20:25.119Z,82.80
2017-12-19T19:22:52.676Z,83.10
2017-12-19T19:25:20.255Z,83.20
2017-12-19T19:27:47.795Z,83.00
2017-12-19T19:30:16.811Z,83.20
2017-12-19T19:32:44.541Z,82.90
2017-12-19T19:35:12.084Z,82.40
2017-12-19T19:37:40.417Z,83.30
2017-12-19T19:40:07.948Z,83.30
2017-12-19T19:42:35.495Z,82.70
2017-12-19T19:45:03.032Z,82.30
2017-12-19T19:47:30.604Z,82.20
2017-12-19T19:49:59.006Z,82.70
2017-12-19T19:52:26.536Z,82.60
2017-12-19T19:54:54.836Z,82.40
2017-12-19T19:57:22.396Z,82.30
2017-12-19T19:59:49.924Z,82.60
2017-12-19T20:02:17.456Z,82.60
2017-12-19T20:04:45.054Z,82.80
2017-12-19T20:07:14.251Z,83.00
2017-12-19T20:09:41.803Z,83.00
2017-12-19T20:12:09.373Z,82.90
2017-12-19T20:14:36.967Z,82.50
2017-12-19T20:17:04.510Z,82.90
2017-12-19T20:19:32.090Z,83.20
2017-12-19T20:21:59.638Z,83.30
2017-12-19T20:24:27.220Z,83.60
2017-12-19T20:26:54.854Z,83.10
2017-12-19T20:29:23.401Z,83.50
2017-12-19T20:31:50.989Z,83.60
2017-12-19T20:34:18.530Z,83.70
2017-12-19T20:36:46.855Z,82.90
2017-12-19T20:39:15.358Z,82.80
2017-12-19T20:41:43.680Z,82.70
2017-12-19T20:44:11.240Z,82.70
2017-12-19T20:46:38.797Z,82.80
2017-12-19T20:49:06.327Z,83.20
2017-12-19T20:51:33.891Z,83.40
2017-12-19T20:54:01.439Z,83.20
2017-12-19T20:56:28.983Z,83.90
2017-12-19T20:58:56.586Z,83.50
2017-12-19T21:01:24.139Z,83.40
2017-12-19T21:03:52.428Z,83.80
2017-12-19T21:06:20.009Z,83.70
2017-12-19T21:08:47.575Z,83.90
2017-12-19T21:11:15.899Z,84.90
2017-12-19T21:13:43.500Z,85.60
2017-12-19T21:16:11.055Z,85.10
2017-12-19T21:18:38.613Z,85.70
2017-12-19T21:21:06.178Z,86.30
2017-12-19T21:23:33.937Z,86.70
2017-12-19T21:26:01.937Z,86.40
2017-12-19T21:28:29.669Z,86.90
2017-12-19T21:30:58.350Z,87.30
2017-12-19T21:33:27.130Z,86.20
2017-12-19T21:35:55.189Z,85.40
2017-12-19T21:38:23.079Z,85.10
2017-12-19T21:40:51.282Z,85.30
2017-12-19T21:43:18.839Z,84.60
2017-12-19T21:45:46.410Z,84.70
2017-12-19T21:48:13.950Z,85.10
2017-12-19T21:50:41.483Z,85.30
2017-12-19T21:53:09.070Z,84.60
2017-12-19T21:55:36.613Z,84.30
2017-12-19T21:58:04.184Z,83.90
2017-12-19T22:00:31.728Z,83.90
2017-12-19T22:02:59.312Z,83.70
2017-12-19T22:05:26.874Z,83.60
2017-12-19T22:07:54.468Z,84.00
2017-12-19T22:10:22.807Z,83.80
2017-12-19T22:12:50.367Z,83.80
2017-12-19T22:15:17.926Z,83.90
2017-12-19T22:17:45.497Z,84.40
2017-12-19T22:20:13.046Z,83.90
2017-12-19T22:22:40.628Z,83.90
2017-12-19T22:25:08.168Z,84.80
2017-12-19T22:27:35.706Z,84.10
2017-12-19T22:30:03.280Z,84.50
2017-12-19T22:32:31.804Z,84.10
2017-12-19T22:35:00.135Z,83.60
2017-12-19T22:37:27.667Z,83.50
2017-12-19T22:39:55.219Z,83.80
2017-12-19T22:42:23.741Z,84.30
2017-12-19T22:44:51.310Z,84.50
2017-12-19T22:47:18.871Z,86.10
2017-12-19T22:49:47.196Z,84.40
2017-12-19T22:52:14.748Z,84.40
2017-12-19T22:54:42.283Z,86.50
2017-12-19T22:57:09.863Z,84.50
2017-12-19T22:59:39.132Z,85.50
2017-12-19T23:02:07.455Z,84.50
2017-12-19T23:04:35.969Z,84.50
2017-12-19T23:07:03.549Z,85.00
2017-12-19T23:09:31.838Z,83.00
2017-12-19T23:12:00.172Z,82.60
2017-12-19T23:14:27.724Z,82.60
2017-12-19T23:16:55.292Z,83.10
2017-12-19T23:19:22.859Z,82.10
2017-12-19T23:21:50.389Z,82.10
2017-12-19T23:24:17.944Z,82.10
2017-12-19T23:26:45.542Z,81.60
2017-12-19T23:29:15.043Z,81.60
2017-12-19T23:31:42.576Z,82.00
2017-12-19T23:34:10.143Z,82.20
2017-12-19T23:36:37.692Z,81.90
2017-12-19T23:39:07.707Z,83.80
2017-12-19T23:41:35.462Z,84.70
2017-12-19T23:44:03.147Z,84.60
2017-12-19T23:46:31.987Z,84.90
2017-12-19T23:49:01.619Z,84.90
2017-12-19T23:51:29.311Z,84.80
2017-12-19T23:53:57.151Z,83.70
2017-12-19T23:56:24.893Z,83.30
2017-12-19T23:58:52.792Z,83.00
